sensor_id;sensor_type;location;lat;lon;timestamp;temperature;humidity
42913;DHT22;50720;54.324;18.558;2023-12-20T00:02:40;6.90;99.90
42913;DHT22;50720;54.324;18.558;2023-12-20T00:05:30;6.80;99.90
42913;DHT22;50720;54.324;18.558;2023-12-20T00:08:14;6.80;99.90
42913;DHT22;50720;54.324;18.558;2023-12-20T00:10:58;6.80;99.90
42913;DHT22;50720;54.324;18.558;2023-12-20T00:13:41;6.80;99.90
42913;DHT22;50720;54.324;18.558;2023-12-20T00:16:24;6.70;99.90
42913;DHT22;50720;54.324;18.558;2023-12-20T00:19:08;6.70;99.90
42913;DHT22;50720;54.324;18.558;2023-12-20T00:21:53;6.80;99.90
42913;DHT22;50720;54.324;18.558;2023-12-20T00:24:37;6.70;99.90
42913;DHT22;50720;54.324;18.558;2023-12-20T00:27:20;6.70;99.90
42913;DHT22;50720;54.324;18.558;2023-12-20T00:30:04;6.70;99.90
42913;DHT22;50720;54.324;18.558;2023-12-20T00:32:48;6.70;99.90
42913;DHT22;50720;54.324;18.558;2023-12-20T00:35:32;6.70;99.90
42913;DHT22;50720;54.324;18.558;2023-12-20T00:38:17;6.70;99.90
42913;DHT22;50720;54.324;18.558;2023-12-20T00:41:00;6.60;99.90
42913;DHT22;50720;54.324;18.558;2023-12-20T00:43:44;6.60;99.90
42913;DHT22;50720;54.324;18.558;2023-12-20T00:46:27;6.60;99.90
42913;DHT22;50720;54.324;18.558;2023-12-20T00:49:11;6.60;99.90
42913;DHT22;50720;54.324;18.558;2023-12-20T00:51:55;6.50;99.90
42913;DHT22;50720;54.324;18.558;2023-12-20T00:54:40;6.60;99.90
42913;DHT22;50720;54.324;18.558;2023-12-20T00:57:23;6.50;99.90
42913;DHT22;50720;54.324;18.558;2023-12-20T01:00:08;6.50;99.90
42913;DHT22;50720;54.324;18.558;2023-12-20T01:02:52;6.40;99.90
42913;DHT22;50720;54.324;18.558;2023-12-20T01:05:36;6.30;99.90
42913;DHT22;50720;54.324;18.558;2023-12-20T01:08:19;6.30;99.90
42913;DHT22;50720;54.324;18.558;2023-12-20T01:11:05;6.20;99.90
42913;DHT22;50720;54.324;18.558;2023-12-20T01:13:49;6.20;99.90
42913;DHT22;50720;54.324;18.558;2023-12-20T01:16:32;6.10;99.90
42913;DHT22;50720;54.324;18.558;2023-12-20T01:19:16;6.00;99.90
42913;DHT22;50720;54.324;18.558;2023-12-20T01:22:00;5.90;99.90
42913;DHT22;50720;54.324;18.558;2023-12-20T01:24:43;5.90;99.90
42913;DHT22;50720;54.324;18.558;2023-12-20T01:27:29;5.80;99.90
42913;DHT22;50720;54.324;18.558;2023-12-20T01:30:14;5.80;99.90
42913;DHT22;50720;54.324;18.558;2023-12-20T01:32:59;5.70;99.90
42913;DHT22;50720;54.324;18.558;2023-12-20T01:35:43;5.70;99.90
42913;DHT22;50720;54.324;18.558;2023-12-20T01:38:27;5.70;99.90
42913;DHT22;50720;54.324;18.558;2023-12-20T01:41:10;5.70;99.90
42913;DHT22;50720;54.324;18.558;2023-12-20T01:43:55;5.70;99.90
42913;DHT22;50720;54.324;18.558;2023-12-20T01:46:39;5.80;99.90
42913;DHT22;50720;54.324;18.558;2023-12-20T01:49:22;5.80;99.90
42913;DHT22;50720;54.324;18.558;2023-12-20T01:52:07;5.70;99.90
42913;DHT22;50720;54.324;18.558;2023-12-20T01:54:54;5.60;99.90
42913;DHT22;50720;54.324;18.558;2023-12-20T01:57:43;5.70;99.90
42913;DHT22;50720;54.324;18.558;2023-12-20T02:00:29;5.60;99.90
42913;DHT22;50720;54.324;18.558;2023-12-20T02:03:13;5.50;99.90
42913;DHT22;50720;54.324;18.558;2023-12-20T02:05:57;5.40;99.90
42913;DHT22;50720;54.324;18.558;2023-12-20T02:08:40;5.40;99.90
42913;DHT22;50720;54.324;18.558;2023-12-20T02:11:24;5.40;99.90
42913;DHT22;50720;54.324;18.558;2023-12-20T02:14:08;5.30;99.90
42913;DHT22;50720;54.324;18.558;2023-12-20T02:16:53;5.30;99.90
42913;DHT22;50720;54.324;18.558;2023-12-20T02:19:36;5.30;99.90
42913;DHT22;50720;54.324;18.558;2023-12-20T02:22:22;5.20;99.90
42913;DHT22;50720;54.324;18.558;2023-12-20T02:25:06;5.20;99.90
42913;DHT22;50720;54.324;18.558;2023-12-20T02:27:50;5.20;99.90
42913;DHT22;50720;54.324;18.558;2023-12-20T02:30:33;5.20;99.90
42913;DHT22;50720;54.324;18.558;2023-12-20T02:33:17;5.20;99.90
42913;DHT22;50720;54.324;18.558;2023-12-20T02:36:00;5.10;99.90
42913;DHT22;50720;54.324;18.558;2023-12-20T02:38:45;5.10;99.90
42913;DHT22;50720;54.324;18.558;2023-12-20T02:41:29;5.10;99.90
42913;DHT22;50720;54.324;18.558;2023-12-20T02:44:12;5.10;99.90
42913;DHT22;50720;54.324;18.558;2023-12-20T02:46:56;5.10;99.90
42913;DHT22;50720;54.324;18.558;2023-12-20T02:49:39;5.00;99.90
42913;DHT22;50720;54.324;18.558;2023-12-20T02:52:23;5.00;99.90
42913;DHT22;50720;54.324;18.558;2023-12-20T02:55:09;5.00;99.90
42913;DHT22;50720;54.324;18.558;2023-12-20T02:57:52;5.00;99.90
42913;DHT22;50720;54.324;18.558;2023-12-20T03:00:36;5.00;99.90
42913;DHT22;50720;54.324;18.558;2023-12-20T03:03:20;4.90;99.90
42913;DHT22;50720;54.324;18.558;2023-12-20T03:06:03;4.90;99.90
42913;DHT22;50720;54.324;18.558;2023-12-20T03:08:47;4.90;99.90
42913;DHT22;50720;54.324;18.558;2023-12-20T03:11:32;4.90;99.90
42913;DHT22;50720;54.324;18.558;2023-12-20T03:14:15;4.90;99.90
42913;DHT22;50720;54.324;18.558;2023-12-20T03:16:59;4.90;99.90
42913;DHT22;50720;54.324;18.558;2023-12-20T03:19:42;4.90;99.90
42913;DHT22;50720;54.324;18.558;2023-12-20T03:22:26;4.90;99.90
42913;DHT22;50720;54.324;18.558;2023-12-20T03:25:09;4.80;99.90
42913;DHT22;50720;54.324;18.558;2023-12-20T03:27:54;4.80;99.90
42913;DHT22;50720;54.324;18.558;2023-12-20T03:30:38;4.80;99.90
42913;DHT22;50720;54.324;18.558;2023-12-20T03:33:22;4.70;99.90
42913;DHT22;50720;54.324;18.558;2023-12-20T03:36:06;4.70;99.90
42913;DHT22;50720;54.324;18.558;2023-12-20T03:38:49;4.70;99.90
42913;DHT22;50720;54.324;18.558;2023-12-20T03:41:33;4.70;99.90
42913;DHT22;50720;54.324;18.558;2023-12-20T03:44:18;4.80;99.90
42913;DHT22;50720;54.324;18.558;2023-12-20T03:47:02;4.80;99.90
42913;DHT22;50720;54.324;18.558;2023-12-20T03:49:46;4.90;99.90
42913;DHT22;50720;54.324;18.558;2023-12-20T03:52:30;4.90;99.90
42913;DHT22;50720;54.324;18.558;2023-12-20T03:55:13;4.90;99.90
42913;DHT22;50720;54.324;18.558;2023-12-20T03:57:57;4.90;99.90
42913;DHT22;50720;54.324;18.558;2023-12-20T04:00:42;4.90;99.90
42913;DHT22;50720;54.324;18.558;2023-12-20T04:03:25;5.00;99.90
42913;DHT22;50720;54.324;18.558;2023-12-20T04:06:09;4.90;99.90
42913;DHT22;50720;54.324;18.558;2023-12-20T04:08:53;4.90;99.90
42913;DHT22;50720;54.324;18.558;2023-12-20T04:11:36;4.90;99.90
42913;DHT22;50720;54.324;18.558;2023-12-20T04:14:20;4.90;99.90
42913;DHT22;50720;54.324;18.558;2023-12-20T04:17:05;4.90;99.90
42913;DHT22;50720;54.324;18.558;2023-12-20T04:19:48;4.90;99.90
42913;DHT22;50720;54.324;18.558;2023-12-20T04:22:32;4.90;99.90
42913;DHT22;50720;54.324;18.558;2023-12-20T04:25:16;4.80;99.90
42913;DHT22;50720;54.324;18.558;2023-12-20T04:27:59;4.80;99.90
42913;DHT22;50720;54.324;18.558;2023-12-20T04:30:43;4.80;99.90
42913;DHT22;50720;54.324;18.558;2023-12-20T04:33:28;4.70;99.90
42913;DHT22;50720;54.324;18.558;2023-12-20T04:36:11;4.70;99.90
42913;DHT22;50720;54.324;18.558;2023-12-20T04:38:55;4.60;99.90
42913;DHT22;50720;54.324;18.558;2023-12-20T04:41:39;4.60;99.90
42913;DHT22;50720;54.324;18.558;2023-12-20T04:44:22;4.60;99.90
42913;DHT22;50720;54.324;18.558;2023-12-20T04:47:05;4.70;99.90
42913;DHT22;50720;54.324;18.558;2023-12-20T04:49:50;4.60;99.90
42913;DHT22;50720;54.324;18.558;2023-12-20T04:52:34;4.60;99.90
42913;DHT22;50720;54.324;18.558;2023-12-20T04:55:18;4.60;99.90
42913;DHT22;50720;54.324;18.558;2023-12-20T04:58:01;4.60;99.90
42913;DHT22;50720;54.324;18.558;2023-12-20T05:00:45;4.50;99.90
42913;DHT22;50720;54.324;18.558;2023-12-20T05:03:29;4.50;99.90
42913;DHT22;50720;54.324;18.558;2023-12-20T05:06:14;4.50;99.90
42913;DHT22;50720;54.324;18.558;2023-12-20T05:08:57;4.40;99.90
42913;DHT22;50720;54.324;18.558;2023-12-20T05:11:41;4.40;99.90
42913;DHT22;50720;54.324;18.558;2023-12-20T05:14:25;4.40;99.90
42913;DHT22;50720;54.324;18.558;2023-12-20T05:17:09;4.40;99.90
42913;DHT22;50720;54.324;18.558;2023-12-20T05:19:52;4.40;99.90
42913;DHT22;50720;54.324;18.558;2023-12-20T05:22:37;4.30;99.90
42913;DHT22;50720;54.324;18.558;2023-12-20T05:25:21;4.30;99.90
42913;DHT22;50720;54.324;18.558;2023-12-20T05:28:05;4.20;99.90
42913;DHT22;50720;54.324;18.558;2023-12-20T05:30:48;4.30;99.90
42913;DHT22;50720;54.324;18.558;2023-12-20T05:33:32;4.20;99.90
42913;DHT22;50720;54.324;18.558;2023-12-20T05:36:16;4.30;99.90
42913;DHT22;50720;54.324;18.558;2023-12-20T05:39:02;4.20;99.90
42913;DHT22;50720;54.324;18.558;2023-12-20T05:41:46;4.20;99.90
42913;DHT22;50720;54.324;18.558;2023-12-20T05:44:29;4.10;99.90
42913;DHT22;50720;54.324;18.558;2023-12-20T05:47:13;4.10;99.90
42913;DHT22;50720;54.324;18.558;2023-12-20T05:49:56;4.10;99.90
42913;DHT22;50720;54.324;18.558;2023-12-20T05:52:39;4.20;99.90
42913;DHT22;50720;54.324;18.558;2023-12-20T05:55:24;4.10;99.90
42913;DHT22;50720;54.324;18.558;2023-12-20T05:58:08;4.20;99.90
42913;DHT22;50720;54.324;18.558;2023-12-20T06:00:51;4.10;99.90
42913;DHT22;50720;54.324;18.558;2023-12-20T06:03:35;4.10;99.90
42913;DHT22;50720;54.324;18.558;2023-12-20T06:06:18;4.10;99.90
42913;DHT22;50720;54.324;18.558;2023-12-20T06:09:02;4.10;99.90
42913;DHT22;50720;54.324;18.558;2023-12-20T06:11:47;4.10;99.90
42913;DHT22;50720;54.324;18.558;2023-12-20T06:14:31;4.10;99.90
42913;DHT22;50720;54.324;18.558;2023-12-20T06:17:14;4.10;99.90
42913;DHT22;50720;54.324;18.558;2023-12-20T06:19:58;4.00;99.90
42913;DHT22;50720;54.324;18.558;2023-12-20T06:22:42;4.00;99.90
42913;DHT22;50720;54.324;18.558;2023-12-20T06:25:25;4.00;99.90
42913;DHT22;50720;54.324;18.558;2023-12-20T06:28:10;4.00;99.90
42913;DHT22;50720;54.324;18.558;2023-12-20T06:30:56;4.00;99.90
42913;DHT22;50720;54.324;18.558;2023-12-20T06:33:40;3.90;99.90
42913;DHT22;50720;54.324;18.558;2023-12-20T06:36:24;3.90;99.90
42913;DHT22;50720;54.324;18.558;2023-12-20T06:39:07;3.90;99.90
42913;DHT22;50720;54.324;18.558;2023-12-20T06:41:51;3.90;99.90
42913;DHT22;50720;54.324;18.558;2023-12-20T06:44:35;3.90;99.90
42913;DHT22;50720;54.324;18.558;2023-12-20T06:47:19;3.90;99.90
42913;DHT22;50720;54.324;18.558;2023-12-20T06:50:03;3.80;99.90
42913;DHT22;50720;54.324;18.558;2023-12-20T06:52:47;3.80;99.90
42913;DHT22;50720;54.324;18.558;2023-12-20T06:55:31;3.80;99.90
42913;DHT22;50720;54.324;18.558;2023-12-20T06:58:14;3.80;99.90
42913;DHT22;50720;54.324;18.558;2023-12-20T07:01:00;3.70;99.90
42913;DHT22;50720;54.324;18.558;2023-12-20T07:03:44;3.80;99.90
42913;DHT22;50720;54.324;18.558;2023-12-20T07:06:27;3.80;99.90
42913;DHT22;50720;54.324;18.558;2023-12-20T07:09:11;3.80;99.90
42913;DHT22;50720;54.324;18.558;2023-12-20T07:11:55;3.80;99.90
42913;DHT22;50720;54.324;18.558;2023-12-20T07:14:38;3.80;99.90
42913;DHT22;50720;54.324;18.558;2023-12-20T07:17:24;3.80;99.90
42913;DHT22;50720;54.324;18.558;2023-12-20T07:20:09;3.80;99.90
42913;DHT22;50720;54.324;18.558;2023-12-20T07:22:53;3.70;99.90
42913;DHT22;50720;54.324;18.558;2023-12-20T07:25:36;3.80;99.90
42913;DHT22;50720;54.324;18.558;2023-12-20T07:28:20;3.70;99.90
42913;DHT22;50720;54.324;18.558;2023-12-20T07:31:04;3.70;99.90
42913;DHT22;50720;54.324;18.558;2023-12-20T07:33:50;3.70;99.90
42913;DHT22;50720;54.324;18.558;2023-12-20T07:36:35;3.70;99.90
42913;DHT22;50720;54.324;18.558;2023-12-20T07:39:18;3.70;99.90
42913;DHT22;50720;54.324;18.558;2023-12-20T07:42:02;3.70;99.90
42913;DHT22;50720;54.324;18.558;2023-12-20T07:44:45;3.70;99.90
42913;DHT22;50720;54.324;18.558;2023-12-20T07:47:29;3.80;99.90
42913;DHT22;50720;54.324;18.558;2023-12-20T07:50:15;3.70;99.90
42913;DHT22;50720;54.324;18.558;2023-12-20T07:52:59;3.70;99.90
42913;DHT22;50720;54.324;18.558;2023-12-20T07:55:42;3.70;99.90
42913;DHT22;50720;54.324;18.558;2023-12-20T07:58:26;3.70;99.90
42913;DHT22;50720;54.324;18.558;2023-12-20T08:01:31;3.70;99.90
42913;DHT22;50720;54.324;18.558;2023-12-20T08:04:14;3.80;99.90
42913;DHT22;50720;54.324;18.558;2023-12-20T08:06:59;3.80;99.90
42913;DHT22;50720;54.324;18.558;2023-12-20T08:09:44;3.80;99.90
42913;DHT22;50720;54.324;18.558;2023-12-20T08:12:27;3.80;99.90
42913;DHT22;50720;54.324;18.558;2023-12-20T08:15:11;3.80;99.90
42913;DHT22;50720;54.324;18.558;2023-12-20T08:17:54;3.80;99.90
42913;DHT22;50720;54.324;18.558;2023-12-20T08:20:38;3.80;99.90
42913;DHT22;50720;54.324;18.558;2023-12-20T08:23:23;3.90;99.90
42913;DHT22;50720;54.324;18.558;2023-12-20T08:26:09;3.90;99.90
42913;DHT22;50720;54.324;18.558;2023-12-20T08:28:52;4.00;99.90
42913;DHT22;50720;54.324;18.558;2023-12-20T08:31:38;4.00;99.90
42913;DHT22;50720;54.324;18.558;2023-12-20T08:34:22;4.00;99.90
42913;DHT22;50720;54.324;18.558;2023-12-20T08:37:06;4.10;99.90
42913;DHT22;50720;54.324;18.558;2023-12-20T08:39:51;4.10;99.90
42913;DHT22;50720;54.324;18.558;2023-12-20T08:42:36;4.20;99.90
42913;DHT22;50720;54.324;18.558;2023-12-20T08:45:19;4.30;99.90
42913;DHT22;50720;54.324;18.558;2023-12-20T08:48:03;4.40;99.90
42913;DHT22;50720;54.324;18.558;2023-12-20T08:50:50;4.50;99.90
42913;DHT22;50720;54.324;18.558;2023-12-20T08:53:34;4.50;99.90
42913;DHT22;50720;54.324;18.558;2023-12-20T08:56:19;4.60;99.90
42913;DHT22;50720;54.324;18.558;2023-12-20T08:59:03;4.70;99.90
42913;DHT22;50720;54.324;18.558;2023-12-20T09:01:46;4.80;99.90
42913;DHT22;50720;54.324;18.558;2023-12-20T09:04:36;4.80;99.90
42913;DHT22;50720;54.324;18.558;2023-12-20T09:07:23;4.90;99.90
42913;DHT22;50720;54.324;18.558;2023-12-20T09:10:07;4.90;99.90
42913;DHT22;50720;54.324;18.558;2023-12-20T09:12:53;4.90;99.90
42913;DHT22;50720;54.324;18.558;2023-12-20T09:15:39;4.90;99.90
42913;DHT22;50720;54.324;18.558;2023-12-20T09:18:22;5.00;99.90
42913;DHT22;50720;54.324;18.558;2023-12-20T09:21:06;5.00;99.90
42913;DHT22;50720;54.324;18.558;2023-12-20T09:23:49;5.00;99.90
42913;DHT22;50720;54.324;18.558;2023-12-20T09:26:33;4.90;99.90
42913;DHT22;50720;54.324;18.558;2023-12-20T09:29:18;5.00;99.90
42913;DHT22;50720;54.324;18.558;2023-12-20T09:32:01;5.00;99.90
42913;DHT22;50720;54.324;18.558;2023-12-20T09:34:45;5.00;99.90
42913;DHT22;50720;54.324;18.558;2023-12-20T09:37:30;5.10;99.90
42913;DHT22;50720;54.324;18.558;2023-12-20T09:40:14;5.10;99.90
42913;DHT22;50720;54.324;18.558;2023-12-20T09:42:58;5.10;99.90
42913;DHT22;50720;54.324;18.558;2023-12-20T09:45:47;5.10;99.90
42913;DHT22;50720;54.324;18.558;2023-12-20T09:48:31;5.10;99.90
42913;DHT22;50720;54.324;18.558;2023-12-20T09:51:17;5.10;99.90
42913;DHT22;50720;54.324;18.558;2023-12-20T09:54:00;5.10;99.90
42913;DHT22;50720;54.324;18.558;2023-12-20T09:56:46;5.10;99.90
42913;DHT22;50720;54.324;18.558;2023-12-20T09:59:30;5.10;99.90
42913;DHT22;50720;54.324;18.558;2023-12-20T10:02:16;5.10;99.90
42913;DHT22;50720;54.324;18.558;2023-12-20T10:05:08;5.20;99.90
42913;DHT22;50720;54.324;18.558;2023-12-20T10:07:57;5.10;99.90
42913;DHT22;50720;54.324;18.558;2023-12-20T10:10:41;5.20;99.90
42913;DHT22;50720;54.324;18.558;2023-12-20T10:13:29;5.30;99.90
42913;DHT22;50720;54.324;18.558;2023-12-20T10:16:13;5.30;99.90
42913;DHT22;50720;54.324;18.558;2023-12-20T10:18:58;5.30;99.90
42913;DHT22;50720;54.324;18.558;2023-12-20T10:21:41;5.30;99.90
42913;DHT22;50720;54.324;18.558;2023-12-20T10:24:25;5.20;99.90
42913;DHT22;50720;54.324;18.558;2023-12-20T10:27:11;5.20;99.90
42913;DHT22;50720;54.324;18.558;2023-12-20T10:29:54;5.20;99.90
42913;DHT22;50720;54.324;18.558;2023-12-20T10:32:38;5.10;99.90
42913;DHT22;50720;54.324;18.558;2023-12-20T10:35:24;5.20;99.90
42913;DHT22;50720;54.324;18.558;2023-12-20T10:38:07;5.20;99.90
42913;DHT22;50720;54.324;18.558;2023-12-20T10:40:56;5.20;99.90
42913;DHT22;50720;54.324;18.558;2023-12-20T10:43:41;5.20;99.90
42913;DHT22;50720;54.324;18.558;2023-12-20T10:46:25;5.20;99.90
42913;DHT22;50720;54.324;18.558;2023-12-20T10:49:10;5.20;99.90
42913;DHT22;50720;54.324;18.558;2023-12-20T10:51:57;5.20;99.90
42913;DHT22;50720;54.324;18.558;2023-12-20T10:54:44;5.20;99.90
42913;DHT22;50720;54.324;18.558;2023-12-20T10:57:28;5.20;99.90
42913;DHT22;50720;54.324;18.558;2023-12-20T11:00:15;5.20;99.90
42913;DHT22;50720;54.324;18.558;2023-12-20T11:03:00;5.20;99.90
42913;DHT22;50720;54.324;18.558;2023-12-20T11:05:49;5.20;99.90
42913;DHT22;50720;54.324;18.558;2023-12-20T11:08:38;5.30;99.90
42913;DHT22;50720;54.324;18.558;2023-12-20T11:11:29;5.30;99.90
42913;DHT22;50720;54.324;18.558;2023-12-20T11:14:17;5.30;99.90
42913;DHT22;50720;54.324;18.558;2023-12-20T11:17:09;5.30;99.90
42913;DHT22;50720;54.324;18.558;2023-12-20T11:20:08;5.30;99.90
42913;DHT22;50720;54.324;18.558;2023-12-20T11:22:54;5.30;99.90
42913;DHT22;50720;54.324;18.558;2023-12-20T11:25:48;5.40;99.90
42913;DHT22;50720;54.324;18.558;2023-12-20T11:28:31;5.40;99.90
42913;DHT22;50720;54.324;18.558;2023-12-20T11:31:15;5.40;99.90
42913;DHT22;50720;54.324;18.558;2023-12-20T11:34:12;5.40;99.90
42913;DHT22;50720;54.324;18.558;2023-12-20T11:36:57;5.40;99.90
42913;DHT22;50720;54.324;18.558;2023-12-20T11:39:43;5.50;99.90
42913;DHT22;50720;54.324;18.558;2023-12-20T11:42:28;5.40;99.90
42913;DHT22;50720;54.324;18.558;2023-12-20T11:45:17;5.50;99.90
42913;DHT22;50720;54.324;18.558;2023-12-20T11:48:02;5.50;99.90
42913;DHT22;50720;54.324;18.558;2023-12-20T11:50:45;5.60;99.90
42913;DHT22;50720;54.324;18.558;2023-12-20T11:53:29;5.60;99.90
42913;DHT22;50720;54.324;18.558;2023-12-20T11:56:14;5.50;99.90
42913;DHT22;50720;54.324;18.558;2023-12-20T11:58:59;5.60;99.90
42913;DHT22;50720;54.324;18.558;2023-12-20T12:02:01;5.50;99.90
42913;DHT22;50720;54.324;18.558;2023-12-20T12:04:45;5.60;99.90
42913;DHT22;50720;54.324;18.558;2023-12-20T12:07:33;5.60;99.90
42913;DHT22;50720;54.324;18.558;2023-12-20T12:10:17;5.50;99.90
42913;DHT22;50720;54.324;18.558;2023-12-20T12:13:01;5.60;99.90
42913;DHT22;50720;54.324;18.558;2023-12-20T12:15:48;5.60;99.90
42913;DHT22;50720;54.324;18.558;2023-12-20T12:18:32;5.60;99.90
42913;DHT22;50720;54.324;18.558;2023-12-20T12:21:19;5.50;99.90
42913;DHT22;50720;54.324;18.558;2023-12-20T12:24:08;5.50;99.90
42913;DHT22;50720;54.324;18.558;2023-12-20T12:26:52;5.40;99.90
42913;DHT22;50720;54.324;18.558;2023-12-20T12:29:36;5.40;99.90
42913;DHT22;50720;54.324;18.558;2023-12-20T12:32:21;5.40;99.90
42913;DHT22;50720;54.324;18.558;2023-12-20T12:35:05;5.40;99.90
42913;DHT22;50720;54.324;18.558;2023-12-20T12:37:51;5.40;99.90
42913;DHT22;50720;54.324;18.558;2023-12-20T12:40:35;5.40;99.90
42913;DHT22;50720;54.324;18.558;2023-12-20T12:43:19;5.40;99.90
42913;DHT22;50720;54.324;18.558;2023-12-20T12:46:04;5.40;99.90
42913;DHT22;50720;54.324;18.558;2023-12-20T12:48:50;5.40;99.90
42913;DHT22;50720;54.324;18.558;2023-12-20T12:51:33;5.40;99.90
42913;DHT22;50720;54.324;18.558;2023-12-20T12:54:16;5.40;99.90
42913;DHT22;50720;54.324;18.558;2023-12-20T12:57:00;5.40;99.90
42913;DHT22;50720;54.324;18.558;2023-12-20T12:59:44;5.40;99.90
42913;DHT22;50720;54.324;18.558;2023-12-20T13:02:28;5.40;99.90
42913;DHT22;50720;54.324;18.558;2023-12-20T13:05:14;5.30;99.90
42913;DHT22;50720;54.324;18.558;2023-12-20T13:07:58;5.40;99.90
42913;DHT22;50720;54.324;18.558;2023-12-20T13:10:41;5.40;99.90
42913;DHT22;50720;54.324;18.558;2023-12-20T13:13:25;5.40;99.90
42913;DHT22;50720;54.324;18.558;2023-12-20T13:16:08;5.40;99.90
42913;DHT22;50720;54.324;18.558;2023-12-20T13:18:52;5.40;99.90
42913;DHT22;50720;54.324;18.558;2023-12-20T13:21:37;5.40;99.90
42913;DHT22;50720;54.324;18.558;2023-12-20T13:24:21;5.40;99.90
42913;DHT22;50720;54.324;18.558;2023-12-20T13:27:05;5.40;99.90
42913;DHT22;50720;54.324;18.558;2023-12-20T13:29:49;5.30;99.90
42913;DHT22;50720;54.324;18.558;2023-12-20T13:32:33;5.30;99.90
42913;DHT22;50720;54.324;18.558;2023-12-20T13:35:18;5.20;99.90
42913;DHT22;50720;54.324;18.558;2023-12-20T13:38:04;5.30;99.90
42913;DHT22;50720;54.324;18.558;2023-12-20T13:40:49;5.30;99.90
42913;DHT22;50720;54.324;18.558;2023-12-20T13:43:34;5.30;99.90
42913;DHT22;50720;54.324;18.558;2023-12-20T13:46:18;5.20;99.90
42913;DHT22;50720;54.324;18.558;2023-12-20T13:49:01;5.20;99.90
42913;DHT22;50720;54.324;18.558;2023-12-20T13:51:45;5.20;99.90
42913;DHT22;50720;54.324;18.558;2023-12-20T13:54:31;5.20;99.90
42913;DHT22;50720;54.324;18.558;2023-12-20T13:57:14;5.10;99.90
42913;DHT22;50720;54.324;18.558;2023-12-20T14:00:18;5.00;99.90
42913;DHT22;50720;54.324;18.558;2023-12-20T14:03:03;5.00;99.90
42913;DHT22;50720;54.324;18.558;2023-12-20T14:05:46;5.00;99.90
42913;DHT22;50720;54.324;18.558;2023-12-20T14:08:30;5.10;99.90
42913;DHT22;50720;54.324;18.558;2023-12-20T14:11:15;5.00;99.90
42913;DHT22;50720;54.324;18.558;2023-12-20T14:13:59;5.00;99.90
42913;DHT22;50720;54.324;18.558;2023-12-20T14:16:43;5.10;99.90
42913;DHT22;50720;54.324;18.558;2023-12-20T14:19:27;5.10;99.90
42913;DHT22;50720;54.324;18.558;2023-12-20T14:22:11;5.10;99.90
42913;DHT22;50720;54.324;18.558;2023-12-20T14:24:58;5.10;99.90
42913;DHT22;50720;54.324;18.558;2023-12-20T14:27:43;5.10;99.90
42913;DHT22;50720;54.324;18.558;2023-12-20T14:30:27;5.20;99.90
42913;DHT22;50720;54.324;18.558;2023-12-20T14:33:11;5.20;99.90
42913;DHT22;50720;54.324;18.558;2023-12-20T14:35:55;5.10;99.90
42913;DHT22;50720;54.324;18.558;2023-12-20T14:38:39;5.10;99.90
42913;DHT22;50720;54.324;18.558;2023-12-20T14:41:23;5.10;99.90
42913;DHT22;50720;54.324;18.558;2023-12-20T14:44:09;5.10;99.90
42913;DHT22;50720;54.324;18.558;2023-12-20T14:46:52;5.10;99.90
42913;DHT22;50720;54.324;18.558;2023-12-20T14:49:36;5.10;99.90
42913;DHT22;50720;54.324;18.558;2023-12-20T14:52:20;5.20;99.90
42913;DHT22;50720;54.324;18.558;2023-12-20T14:55:04;5.10;99.90
42913;DHT22;50720;54.324;18.558;2023-12-20T14:57:48;5.10;99.90
42913;DHT22;50720;54.324;18.558;2023-12-20T15:00:33;5.10;99.90
42913;DHT22;50720;54.324;18.558;2023-12-20T15:03:17;5.10;99.90
42913;DHT22;50720;54.324;18.558;2023-12-20T15:06:01;5.10;99.90
42913;DHT22;50720;54.324;18.558;2023-12-20T15:08:45;5.10;99.90
42913;DHT22;50720;54.324;18.558;2023-12-20T15:11:28;5.10;99.90
42913;DHT22;50720;54.324;18.558;2023-12-20T15:14:11;5.20;99.90
42913;DHT22;50720;54.324;18.558;2023-12-20T15:17:01;5.20;99.90
42913;DHT22;50720;54.324;18.558;2023-12-20T15:19:45;5.10;99.90
42913;DHT22;50720;54.324;18.558;2023-12-20T15:22:28;5.10;99.90
42913;DHT22;50720;54.324;18.558;2023-12-20T15:25:12;5.10;99.90
42913;DHT22;50720;54.324;18.558;2023-12-20T15:28:01;5.10;99.90
42913;DHT22;50720;54.324;18.558;2023-12-20T15:30:45;5.10;99.90
42913;DHT22;50720;54.324;18.558;2023-12-20T15:33:31;5.10;99.90
42913;DHT22;50720;54.324;18.558;2023-12-20T15:36:14;5.20;99.90
42913;DHT22;50720;54.324;18.558;2023-12-20T15:38:58;5.20;99.90
42913;DHT22;50720;54.324;18.558;2023-12-20T15:41:42;5.20;99.90
42913;DHT22;50720;54.324;18.558;2023-12-20T15:44:26;5.20;99.90
42913;DHT22;50720;54.324;18.558;2023-12-20T15:47:09;5.10;99.90
42913;DHT22;50720;54.324;18.558;2023-12-20T15:49:54;5.20;99.90
42913;DHT22;50720;54.324;18.558;2023-12-20T15:52:38;5.20;99.90
42913;DHT22;50720;54.324;18.558;2023-12-20T15:55:21;5.10;99.90
42913;DHT22;50720;54.324;18.558;2023-12-20T15:58:05;5.00;99.90
42913;DHT22;50720;54.324;18.558;2023-12-20T16:00:48;4.90;99.90
42913;DHT22;50720;54.324;18.558;2023-12-20T16:03:32;4.80;99.90
42913;DHT22;50720;54.324;18.558;2023-12-20T16:06:26;4.70;99.90
42913;DHT22;50720;54.324;18.558;2023-12-20T16:09:10;4.70;99.90
42913;DHT22;50720;54.324;18.558;2023-12-20T16:11:55;4.60;99.90
42913;DHT22;50720;54.324;18.558;2023-12-20T16:14:38;4.60;99.90
42913;DHT22;50720;54.324;18.558;2023-12-20T16:17:21;4.60;99.90
42913;DHT22;50720;54.324;18.558;2023-12-20T16:20:07;4.50;99.90
42913;DHT22;50720;54.324;18.558;2023-12-20T16:22:54;4.40;99.90
42913;DHT22;50720;54.324;18.558;2023-12-20T16:25:38;4.40;99.90
42913;DHT22;50720;54.324;18.558;2023-12-20T16:28:22;4.40;99.90
42913;DHT22;50720;54.324;18.558;2023-12-20T16:31:06;4.40;99.90
42913;DHT22;50720;54.324;18.558;2023-12-20T16:33:50;4.40;99.90
42913;DHT22;50720;54.324;18.558;2023-12-20T16:36:49;4.40;99.90
42913;DHT22;50720;54.324;18.558;2023-12-20T16:39:35;4.40;99.90
42913;DHT22;50720;54.324;18.558;2023-12-20T16:42:18;4.40;99.90
42913;DHT22;50720;54.324;18.558;2023-12-20T16:45:02;4.30;99.90
42913;DHT22;50720;54.324;18.558;2023-12-20T16:47:46;4.10;99.90
42913;DHT22;50720;54.324;18.558;2023-12-20T16:50:30;3.80;99.90
42913;DHT22;50720;54.324;18.558;2023-12-20T16:53:13;3.70;99.90
42913;DHT22;50720;54.324;18.558;2023-12-20T16:55:59;3.60;99.90
42913;DHT22;50720;54.324;18.558;2023-12-20T16:58:42;3.60;99.90
42913;DHT22;50720;54.324;18.558;2023-12-20T17:01:26;3.50;99.90
42913;DHT22;50720;54.324;18.558;2023-12-20T17:04:11;3.40;99.90
42913;DHT22;50720;54.324;18.558;2023-12-20T17:06:55;3.40;99.90
42913;DHT22;50720;54.324;18.558;2023-12-20T17:09:38;3.40;99.90
42913;DHT22;50720;54.324;18.558;2023-12-20T17:12:23;3.40;99.90
42913;DHT22;50720;54.324;18.558;2023-12-20T17:15:07;3.60;99.90
42913;DHT22;50720;54.324;18.558;2023-12-20T17:17:50;3.60;99.90
42913;DHT22;50720;54.324;18.558;2023-12-20T17:20:35;3.60;99.90